Webcam op het Zuiden Meer informatie Webcam op het Zuiden


Webcam op het Westen Meer informatie Webcam op het Westen


waarschuwing voor Onweer Meer informatie blitzortung!


Regen radar  rain snow radar


Lokaal brand risico:
CBI


Regionaal brand risico: Meer informatie


Lokaal brand risico:
Gebaseerd op actuele waarde
CBI


Bezoek ook deze websites:

Template documentation
and downloads

And another site



Onweer van: 24-07-2021 18:00 tot: 21:00 waarschuwing voor: Onweer niveau: Geel info button
Enkele onweersbuien, lokaal met hagel en veel neerslag in korte tijd.Kans op blikseminslag, hagel en veel neerslag in korte tijd.Verkeer en buitenactiviteiten kunnen hinder ondervinden.Mijd open water en open gebied, schuil niet onder bomen.Volg weerberichten en waarschuwingen.

METAR rapporten vliegvelden

   
ETWM - Meppen, Germany
Afstand tot: O 29 km
Gewijzigd: 24-07-2021 03:20
  
  
   Wind: ONO 5.6 km/h
Wind: ONO 5.6 km/h
Temperatuur: 13°C
Dauwpunt: 12°C
Vochtigheid: 94%
Barometer: 1014 hPa
ETWM 240120Z AUTO 06003KT //// // ////// 13/12 Q1014 ///
EHGG - Groningen/Eelde, Netherlands
Afstand tot: NNW 47 km
Gewijzigd: 24-07-2021 03:55
Nevel, Helder  
Nevel, Helder  
   Wind: ONO 7.4 km/h
Wind: ONO 7.4 km/h
Temperatuur: 12°C
Dauwpunt: 12°C
Vochtigheid: 100%
Barometer: 1014 hPa
Bewolking: Helder
Zicht: 3 km
Bewolking: Helder
EHGG 240155Z AUTO 07004KT 2700 BR NCD 12/12 Q1014
EDDG - Muenster/Osnabru, Germany
Afstand tot: ZO 87 km
Gewijzigd: 24-07-2021 03:50
Helder  
Helder  
   Wind: NO 5.6 km/h
Wind: NO 5.6 km/h
Temperatuur: 14°C
Dauwpunt: 12°C
Vochtigheid: 88%
Barometer: 1013 hPa
Zicht: meer dan 10 km
Bewolking: Helder
EDDG 240150Z 05003KT 360V100 CAVOK 14/12 Q1013 NOSIG
EHLW - Leeuwarden Rnlaf, Netherlands
Afstand tot: NW 93 km
Gewijzigd: 24-07-2021 03:55
Helder  
Helder  
   Wind: ONO 7.4 km/h
Wind: ONO 7.4 km/h
Temperatuur: 13°C
Dauwpunt: 12°C
Vochtigheid: 94%
Barometer: 1014 hPa
Bewolking: Helder
Zicht: meer dan 10 km
Bewolking: Helder
EHLW 240155Z AUTO 07004KT 010V110 9999 NCD 13/12 Q1014 BLU
ETNT - Wittmundhaven(Ga, Germany
Afstand tot: NNO 100 km
Gewijzigd: 24-07-2021 03:20
Grotendeels bewolkt  
Grotendeels bewolkt  
   Wind: Oosten 5.6 km/h
Wind: Oosten 5.6 km/h
Temperatuur: 16°C
Dauwpunt: 13°C
Vochtigheid: 83%
Barometer: 1015 hPa
Bewolking: Grotendeels bewolkt
Zicht: meer dan 10 km
Bewolking: Grotendeels bewolkt 2800 ft
ETNT 240120Z 09003KT 9999 BKN028 16/13 Q1015 BLU
ETND - Diepholz (ger-Af, Germany
Afstand tot: O 104 km
Gewijzigd: 23-07-2021 11:20
Verouderd
Grotendeels bewolkt  
Grotendeels bewolkt  
   Wind: NNW 5.6 km/h
Wind: NNW 5.6 km/h
Temperatuur: 17°C
Dauwpunt: 12°C
Vochtigheid: 73%
Barometer: 1019 hPa
Bewolking: Grotendeels bewolkt
Zicht: meer dan 10 km
Bewolking: Gedeeltelijk bewolkt 1500 ft,
Grotendeels bewolkt 2600 ft
ETND 230920Z 33003KT 9999 SCT015 BKN026 17/12 Q1019 BLU
ETNT - Wittmundhaven(Ga, Germany
Afstand tot: NNO 102 km
Gewijzigd: 24-07-2021 03:20
Grotendeels bewolkt  
Grotendeels bewolkt  
   Wind: Oosten 5.6 km/h
Wind: Oosten 5.6 km/h
Temperatuur: 16°C
Dauwpunt: 13°C
Vochtigheid: 83%
Barometer: 1015 hPa
Bewolking: Grotendeels bewolkt
Zicht: meer dan 10 km
Bewolking: Grotendeels bewolkt 2800 ft
ETNT 240120Z 09003KT 9999 BKN028 16/13 Q1015 BLU
EHDL - Deelen Rnlafb, Netherlands
Afstand tot: ZW 103 km
Gewijzigd: 24-07-2021 03:55
Bewolking  
Bewolking  
   Wind: ONO 14.8 km/h
Wind: ONO 14.8 km/h
Temperatuur: 14°C
Dauwpunt: 13°C
Vochtigheid: 94%
Barometer: 1012 hPa
Bewolking: Bewolking
Zicht: meer dan 10 km
Bewolking: Bewolking 25000 ft
EHDL 240155Z AUTO 06008KT 360V100 9999 OVC250 14/13 Q1012 BLU
EHMA - Awg-1 Sea, Netherlands
Afstand tot: NW 105 km
Gewijzigd: 24-07-2021 03:55
Grotendeels bewolkt  
Grotendeels bewolkt  
   Wind: OZO 22.2 km/h
Wind: OZO 22.2 km/h
Temperatuur: 18°C
Dauwpunt: 14°C
Vochtigheid: 78%
Barometer: 1014 hPa
Bewolking: Grotendeels bewolkt
Zicht: meer dan 10 km
Bewolking: Licht bewolkt 1700 ft,
Gedeeltelijk bewolkt 2100 ft,
Grotendeels bewolkt 2900 ft
EHMA 240155Z AUTO 11012KT 9999 FEW017 SCT021 BKN029 18/14 Q1014
EDDW - Bremen, Germany
Afstand tot: ONO 135 km
Gewijzigd: 24-07-2021 03:50
Helder  
Helder  
   Wind: ONO 9.3 km/h
Wind: ONO 9.3 km/h
Temperatuur: 13°C
Dauwpunt: 12°C
Vochtigheid: 94%
Barometer: 1014 hPa
Zicht: meer dan 10 km
Bewolking: Helder
EDDW 240150Z 06005KT CAVOK 13/12 Q1014
EHVL - Vlieland Island, Netherlands
Afstand tot: WNW 138 km
Gewijzigd: 24-07-2021 03:55
Bewolking  
Bewolking  
   Wind: ONO 11.1 km/h
Wind: ONO 11.1 km/h
Temperatuur: 15°C
Dauwpunt: 13°C
Vochtigheid: 88%
Barometer: 1014 hPa
Bewolking: Bewolking
Zicht: meer dan 10 km
Bewolking: Bewolking 3000 ft
EHVL 240155Z AUTO 07006KT 9999 OVC030 15/13 Q1014 BLU
EDLV - Niederrhein, Germany
Afstand tot: ZZW 139 km
Gewijzigd: 23-07-2021 23:50
Verouderd
Helder  
Helder  
   Wind: NO 7.4 km/h
Wind: NO 7.4 km/h
Temperatuur: 17°C
Dauwpunt: 14°C
Vochtigheid: 83%
Barometer: 1013 hPa
Zicht: meer dan 10 km
Bewolking: Helder
EDLV 232150Z 04004KT 360V080 CAVOK 17/14 Q1013
EHKD - De Kooy (navy), Netherlands
Afstand tot: W 144 km
Gewijzigd: 24-07-2021 03:55
Bewolking  
Bewolking  
   Wind: Oosten 16.7 km/h
Wind: Oosten 16.7 km/h
Temperatuur: 17°C
Dauwpunt: 14°C
Vochtigheid: 83%
Barometer: 1013 hPa
Bewolking: Bewolking
Zicht: meer dan 10 km
Bewolking: Bewolking 32000 ft
EHKD 240155Z AUTO 08009KT 050V110 9999 OVC320 17/14 Q1013 BLU
EDLW - Dortmund/Wickede, Germany
Afstand tot: ZZO 150 km
Gewijzigd: 24-07-2021 03:50
Helder  
Helder  
   Wind: NO 9.3 km/h
Wind: NO 9.3 km/h
Temperatuur: 14°C
Dauwpunt: 13°C
Vochtigheid: 94%
Barometer: 1012 hPa
Bewolking: Helder
Zicht: meer dan 10 km
Bewolking: Helder
EDLW 240150Z AUTO 05005KT 9999 // NCD 14/13 Q1012
EHVK - Volkel Rnlafb, Netherlands
Afstand tot: ZZW 149 km
Gewijzigd: 24-07-2021 03:55
Grotendeels bewolkt  
Grotendeels bewolkt  
   Wind: ONO 11.1 km/h
Wind: ONO 11.1 km/h
Temperatuur: 15°C
Dauwpunt: 13°C
Vochtigheid: 88%
Barometer: 1011 hPa
Bewolking: Grotendeels bewolkt
Zicht: meer dan 10 km
Bewolking: Grotendeels bewolkt 22000 ft
EHVK 240155Z AUTO 06006KT 040V100 9999 BKN220 15/13 Q1011 BLU
EDLW - Dortmund/Wickede, Germany
Afstand tot: ZZO 150 km
Gewijzigd: 24-07-2021 03:50
Helder  
Helder  
   Wind: NO 9.3 km/h
Wind: NO 9.3 km/h
Temperatuur: 14°C
Dauwpunt: 13°C
Vochtigheid: 94%
Barometer: 1012 hPa
Bewolking: Helder
Zicht: meer dan 10 km
Bewolking: Helder
EDLW 240150Z AUTO 05005KT 9999 // NCD 14/13 Q1012
EHMG - L9-Ff-1 Sea, Netherlands
Afstand tot: NW 155 km
Gewijzigd: 24-07-2021 03:55
Bewolking  
Bewolking  
   Wind: ONO 14.8 km/h
Wind: ONO 14.8 km/h
Temperatuur: 20°C
Dauwpunt: 11°C
Vochtigheid: 56%
Barometer: 1015 hPa
Bewolking: Bewolking
Zicht: meer dan 10 km
Bewolking: Bewolking 2800 ft
EHMG 240155Z AUTO 06008KT 9999 OVC028 20/11 Q1015
ETHB - Buckeburg(Ger-Ar, Germany
Afstand tot: OZO 161 km
Gewijzigd: 24-07-2021 03:20
  
  
   Wind: Kalm
Wind: Kalm
Temperatuur: 13°C
Dauwpunt: 11°C
Vochtigheid: 88%
Barometer: 1014 hPa
Zicht: meer dan 10 km
ETHB 240120Z AUTO 00000KT 9999 // ////// 13/11 Q1014 ///
ETMN - Nordholz (ger-Na, Germany
Afstand tot: NO 164 km
Gewijzigd: 24-07-2021 03:20
  
  
   Wind: Oosten 3.7 km/h
Wind: Oosten 3.7 km/h
Temperatuur: 13°C
Dauwpunt: 12°C
Vochtigheid: 94%
Barometer: 1015 hPa
Zicht: 5 km
ETMN 240120Z AUTO 10002KT 5000 // ////// 13/12 Q1015 ///
EDDL - Duesseldorf, Germany
Afstand tot: Z 165 km
Gewijzigd: 24-07-2021 03:50
Helder  
Helder  
   Wind: Noorden 5.6 km/h
Wind: Noorden 5.6 km/h
Temperatuur: 15°C
Dauwpunt: 13°C
Vochtigheid: 88%
Barometer: 1011 hPa
Zicht: meer dan 10 km
Bewolking: Helder
EDDL 240150Z 01003KT CAVOK 15/13 Q1011 NOSIG
EDLN - Monchengladbach, Germany
Afstand tot: Z 174 km
Gewijzigd: 24-07-2021 03:50
Helder  
Helder  
   Wind: Kalm
Wind: Kalm
Temperatuur: 14°C
Dauwpunt: 13°C
Vochtigheid: 94%
Barometer: 1011 hPa
Bewolking: Helder
Zicht: meer dan 10 km
Bewolking: Helder
EDLN 240150Z AUTO 00000KT 9999 // NCD 14/13 Q1011

Script ontwikkeld door  Saratoga-weather.org Aangepast voor de template door  Weerstation Leuven

U vindt ons ook hier:

Het Weer Aktueel

European Weather Network

Weather Underground

Wetterpage 24

Apparatuur in gebruik:

Weerstation
Davis VP2

Weerprogramma
Meteohub

Hardware
RaspberryPI, Wireless Weather Envoy, MeteoStick, TP-Link MR3020

Leverancier
Weerhuisje.nl weerstations

Davis VP2

Meteohub

RaspberryPI, Wireless Weather Envoy, MeteoStick, TP-Link MR3020

Weerhuisje.nl weerstations